sensor_id;sensor_type;location;lat;lon;timestamp;temperature;humidity
56725;DHT22;42608;52.776;6.968;2022-11-22T00:02:16;3.10;99.90
56725;DHT22;42608;52.776;6.968;2022-11-22T00:04:41;3.00;99.90
56725;DHT22;42608;52.776;6.968;2022-11-22T00:07:08;3.10;99.90
56725;DHT22;42608;52.776;6.968;2022-11-22T00:09:35;3.00;99.90
56725;DHT22;42608;52.776;6.968;2022-11-22T00:12:01;3.00;99.90
56725;DHT22;42608;52.776;6.968;2022-11-22T00:14:28;3.00;99.90
56725;DHT22;42608;52.776;6.968;2022-11-22T00:16:54;3.00;99.90
56725;DHT22;42608;52.776;6.968;2022-11-22T00:19:20;3.00;99.90
56725;DHT22;42608;52.776;6.968;2022-11-22T00:21:46;2.90;99.90
56725;DHT22;42608;52.776;6.968;2022-11-22T00:24:12;2.90;99.90
56725;DHT22;42608;52.776;6.968;2022-11-22T00:26:38;2.90;99.90
56725;DHT22;42608;52.776;6.968;2022-11-22T00:29:04;2.90;99.90
56725;DHT22;42608;52.776;6.968;2022-11-22T00:31:30;2.90;99.90
56725;DHT22;42608;52.776;6.968;2022-11-22T00:33:57;2.90;99.90
56725;DHT22;42608;52.776;6.968;2022-11-22T00:36:23;2.90;99.90
56725;DHT22;42608;52.776;6.968;2022-11-22T00:38:50;2.90;99.90
56725;DHT22;42608;52.776;6.968;2022-11-22T00:41:17;3.00;99.90
56725;DHT22;42608;52.776;6.968;2022-11-22T00:43:43;2.90;99.90
56725;DHT22;42608;52.776;6.968;2022-11-22T00:46:10;2.90;99.90
56725;DHT22;42608;52.776;6.968;2022-11-22T00:48:35;2.90;99.90
56725;DHT22;42608;52.776;6.968;2022-11-22T00:51:03;2.90;99.90
56725;DHT22;42608;52.776;6.968;2022-11-22T00:53:29;2.90;99.90
56725;DHT22;42608;52.776;6.968;2022-11-22T00:55:56;2.90;99.90
56725;DHT22;42608;52.776;6.968;2022-11-22T00:58:22;2.90;99.90
56725;DHT22;42608;52.776;6.968;2022-11-22T01:00:48;2.90;99.90
56725;DHT22;42608;52.776;6.968;2022-11-22T01:03:14;3.00;99.90
56725;DHT22;42608;52.776;6.968;2022-11-22T01:05:41;3.00;99.90
56725;DHT22;42608;52.776;6.968;2022-11-22T01:08:08;3.00;99.90
56725;DHT22;42608;52.776;6.968;2022-11-22T01:10:35;3.00;99.90
56725;DHT22;42608;52.776;6.968;2022-11-22T01:13:02;3.00;99.90
56725;DHT22;42608;52.776;6.968;2022-11-22T01:15:28;3.00;99.90
56725;DHT22;42608;52.776;6.968;2022-11-22T01:17:54;3.00;99.90
56725;DHT22;42608;52.776;6.968;2022-11-22T01:20:21;3.00;99.90
56725;DHT22;42608;52.776;6.968;2022-11-22T01:22:47;3.00;99.90
56725;DHT22;42608;52.776;6.968;2022-11-22T01:25:13;3.00;99.90
56725;DHT22;42608;52.776;6.968;2022-11-22T01:27:40;3.00;99.90
56725;DHT22;42608;52.776;6.968;2022-11-22T01:30:06;3.10;99.90
56725;DHT22;42608;52.776;6.968;2022-11-22T01:32:32;3.10;99.90
56725;DHT22;42608;52.776;6.968;2022-11-22T01:34:58;3.10;99.90
56725;DHT22;42608;52.776;6.968;2022-11-22T01:37:24;3.10;99.90
56725;DHT22;42608;52.776;6.968;2022-11-22T01:39:50;3.10;99.90
56725;DHT22;42608;52.776;6.968;2022-11-22T01:42:16;3.20;99.90
56725;DHT22;42608;52.776;6.968;2022-11-22T01:44:43;3.10;99.90
56725;DHT22;42608;52.776;6.968;2022-11-22T01:47:18;3.20;99.90
56725;DHT22;42608;52.776;6.968;2022-11-22T01:49:56;3.20;99.90
56725;DHT22;42608;52.776;6.968;2022-11-22T01:52:25;3.20;99.90
56725;DHT22;42608;52.776;6.968;2022-11-22T01:54:53;3.20;99.90
56725;DHT22;42608;52.776;6.968;2022-11-22T01:57:21;3.20;99.90
56725;DHT22;42608;52.776;6.968;2022-11-22T01:59:50;3.30;99.90
56725;DHT22;42608;52.776;6.968;2022-11-22T02:02:19;3.30;99.90
56725;DHT22;42608;52.776;6.968;2022-11-22T02:04:44;3.30;99.90
56725;DHT22;42608;52.776;6.968;2022-11-22T02:07:21;3.30;99.90
56725;DHT22;42608;52.776;6.968;2022-11-22T02:09:50;3.30;99.90
56725;DHT22;42608;52.776;6.968;2022-11-22T02:12:16;3.30;99.90
56725;DHT22;42608;52.776;6.968;2022-11-22T02:14:44;3.40;99.90
56725;DHT22;42608;52.776;6.968;2022-11-22T02:17:11;3.30;99.90
56725;DHT22;42608;52.776;6.968;2022-11-22T02:19:42;3.40;99.90
56725;DHT22;42608;52.776;6.968;2022-11-22T02:24:40;3.40;99.90
56725;DHT22;42608;52.776;6.968;2022-11-22T02:27:07;3.40;99.90
56725;DHT22;42608;52.776;6.968;2022-11-22T02:29:33;3.40;99.90
56725;DHT22;42608;52.776;6.968;2022-11-22T02:32:00;3.40;99.90
56725;DHT22;42608;52.776;6.968;2022-11-22T02:34:27;3.40;99.90
56725;DHT22;42608;52.776;6.968;2022-11-22T02:36:53;3.40;99.90
56725;DHT22;42608;52.776;6.968;2022-11-22T02:39:21;3.40;99.90
56725;DHT22;42608;52.776;6.968;2022-11-22T02:41:49;3.40;99.90
56725;DHT22;42608;52.776;6.968;2022-11-22T02:44:15;3.40;99.90
56725;DHT22;42608;52.776;6.968;2022-11-22T02:46:48;3.40;99.90
56725;DHT22;42608;52.776;6.968;2022-11-22T02:49:18;3.50;99.90
56725;DHT22;42608;52.776;6.968;2022-11-22T02:51:45;3.50;99.90
56725;DHT22;42608;52.776;6.968;2022-11-22T02:54:11;3.50;99.90
56725;DHT22;42608;52.776;6.968;2022-11-22T02:56:37;3.50;99.90
56725;DHT22;42608;52.776;6.968;2022-11-22T02:59:04;3.50;99.90
56725;DHT22;42608;52.776;6.968;2022-11-22T03:01:29;3.50;99.90
56725;DHT22;42608;52.776;6.968;2022-11-22T03:03:55;3.60;99.90
56725;DHT22;42608;52.776;6.968;2022-11-22T03:06:22;3.50;99.90
56725;DHT22;42608;52.776;6.968;2022-11-22T03:08:49;3.60;99.90
56725;DHT22;42608;52.776;6.968;2022-11-22T03:11:15;3.60;99.90
56725;DHT22;42608;52.776;6.968;2022-11-22T03:13:43;3.60;99.90
56725;DHT22;42608;52.776;6.968;2022-11-22T03:16:09;3.60;99.90
56725;DHT22;42608;52.776;6.968;2022-11-22T03:18:35;3.60;99.90
56725;DHT22;42608;52.776;6.968;2022-11-22T03:21:04;3.60;99.90
56725;DHT22;42608;52.776;6.968;2022-11-22T03:23:31;3.60;99.90
56725;DHT22;42608;52.776;6.968;2022-11-22T03:25:57;3.70;99.90
56725;DHT22;42608;52.776;6.968;2022-11-22T03:28:23;3.70;99.90
56725;DHT22;42608;52.776;6.968;2022-11-22T03:30:49;3.70;99.90
56725;DHT22;42608;52.776;6.968;2022-11-22T03:33:15;3.70;99.90
56725;DHT22;42608;52.776;6.968;2022-11-22T03:35:41;3.70;99.90
56725;DHT22;42608;52.776;6.968;2022-11-22T03:38:08;3.70;99.90
56725;DHT22;42608;52.776;6.968;2022-11-22T03:40:35;3.70;99.90
56725;DHT22;42608;52.776;6.968;2022-11-22T03:43:01;3.70;99.90
56725;DHT22;42608;52.776;6.968;2022-11-22T03:45:27;3.80;99.90
56725;DHT22;42608;52.776;6.968;2022-11-22T03:47:54;3.70;99.90
56725;DHT22;42608;52.776;6.968;2022-11-22T03:50:21;3.80;99.90
56725;DHT22;42608;52.776;6.968;2022-11-22T03:52:46;3.80;99.90
56725;DHT22;42608;52.776;6.968;2022-11-22T03:55:13;3.80;99.90
56725;DHT22;42608;52.776;6.968;2022-11-22T03:57:39;3.80;99.90
56725;DHT22;42608;52.776;6.968;2022-11-22T04:00:06;3.80;99.90
56725;DHT22;42608;52.776;6.968;2022-11-22T04:02:33;3.80;99.90
56725;DHT22;42608;52.776;6.968;2022-11-22T04:04:59;3.80;99.90
56725;DHT22;42608;52.776;6.968;2022-11-22T04:07:26;3.90;99.90
56725;DHT22;42608;52.776;6.968;2022-11-22T04:09:53;3.90;99.90
56725;DHT22;42608;52.776;6.968;2022-11-22T04:12:18;3.90;99.90
56725;DHT22;42608;52.776;6.968;2022-11-22T04:14:44;3.90;99.90
56725;DHT22;42608;52.776;6.968;2022-11-22T04:17:29;3.90;99.90
56725;DHT22;42608;52.776;6.968;2022-11-22T04:20:27;3.90;99.90
56725;DHT22;42608;52.776;6.968;2022-11-22T04:25:39;3.90;99.90
56725;DHT22;42608;52.776;6.968;2022-11-22T04:28:06;3.90;99.90
56725;DHT22;42608;52.776;6.968;2022-11-22T04:30:33;3.90;99.90
56725;DHT22;42608;52.776;6.968;2022-11-22T04:33:18;3.90;99.90
56725;DHT22;42608;52.776;6.968;2022-11-22T04:35:45;4.00;99.90
56725;DHT22;42608;52.776;6.968;2022-11-22T04:38:12;4.00;99.90
56725;DHT22;42608;52.776;6.968;2022-11-22T04:40:38;4.00;99.90
56725;DHT22;42608;52.776;6.968;2022-11-22T04:43:06;4.00;99.90
56725;DHT22;42608;52.776;6.968;2022-11-22T04:45:51;4.00;99.90
56725;DHT22;42608;52.776;6.968;2022-11-22T04:48:17;4.00;99.90
56725;DHT22;42608;52.776;6.968;2022-11-22T04:50:44;4.00;99.90
56725;DHT22;42608;52.776;6.968;2022-11-22T04:53:29;4.10;99.90
56725;DHT22;42608;52.776;6.968;2022-11-22T04:55:56;4.10;99.90
56725;DHT22;42608;52.776;6.968;2022-11-22T04:58:22;4.10;99.90
56725;DHT22;42608;52.776;6.968;2022-11-22T05:00:49;4.10;99.90
56725;DHT22;42608;52.776;6.968;2022-11-22T05:03:15;4.10;99.90
56725;DHT22;42608;52.776;6.968;2022-11-22T05:05:42;4.20;99.90
56725;DHT22;42608;52.776;6.968;2022-11-22T05:08:09;4.20;99.90
56725;DHT22;42608;52.776;6.968;2022-11-22T05:10:35;4.20;99.90
56725;DHT22;42608;52.776;6.968;2022-11-22T05:13:21;4.20;99.90
56725;DHT22;42608;52.776;6.968;2022-11-22T05:15:47;4.30;99.90
56725;DHT22;42608;52.776;6.968;2022-11-22T05:18:16;4.30;99.90
56725;DHT22;42608;52.776;6.968;2022-11-22T05:20:43;4.30;99.90
56725;DHT22;42608;52.776;6.968;2022-11-22T05:23:09;4.30;99.90
56725;DHT22;42608;52.776;6.968;2022-11-22T05:25:53;4.30;99.90
56725;DHT22;42608;52.776;6.968;2022-11-22T05:28:20;4.40;99.90
56725;DHT22;42608;52.776;6.968;2022-11-22T05:30:46;4.40;99.90
56725;DHT22;42608;52.776;6.968;2022-11-22T05:33:14;4.40;99.90
56725;DHT22;42608;52.776;6.968;2022-11-22T05:35:40;4.40;99.90
56725;DHT22;42608;52.776;6.968;2022-11-22T05:38:07;4.40;99.90
56725;DHT22;42608;52.776;6.968;2022-11-22T05:40:33;4.40;99.90
56725;DHT22;42608;52.776;6.968;2022-11-22T05:43:00;4.50;99.90
56725;DHT22;42608;52.776;6.968;2022-11-22T05:45:27;4.50;99.90
56725;DHT22;42608;52.776;6.968;2022-11-22T05:47:54;4.50;99.90
56725;DHT22;42608;52.776;6.968;2022-11-22T05:50:20;4.50;99.90
56725;DHT22;42608;52.776;6.968;2022-11-22T05:52:47;4.50;99.90
56725;DHT22;42608;52.776;6.968;2022-11-22T05:55:14;4.60;99.90
56725;DHT22;42608;52.776;6.968;2022-11-22T05:57:39;4.60;99.90
56725;DHT22;42608;52.776;6.968;2022-11-22T06:00:06;4.60;99.90
56725;DHT22;42608;52.776;6.968;2022-11-22T06:02:32;4.60;99.90
56725;DHT22;42608;52.776;6.968;2022-11-22T06:04:59;4.60;99.90
56725;DHT22;42608;52.776;6.968;2022-11-22T06:07:25;4.60;99.90
56725;DHT22;42608;52.776;6.968;2022-11-22T06:09:52;4.60;99.90
56725;DHT22;42608;52.776;6.968;2022-11-22T06:12:19;4.70;99.90
56725;DHT22;42608;52.776;6.968;2022-11-22T06:14:45;4.70;99.90
56725;DHT22;42608;52.776;6.968;2022-11-22T06:17:11;4.70;99.90
56725;DHT22;42608;52.776;6.968;2022-11-22T06:19:37;4.70;99.90
56725;DHT22;42608;52.776;6.968;2022-11-22T06:22:03;4.70;99.90
56725;DHT22;42608;52.776;6.968;2022-11-22T06:24:31;4.70;99.90
56725;DHT22;42608;52.776;6.968;2022-11-22T06:26:58;4.70;99.90
56725;DHT22;42608;52.776;6.968;2022-11-22T06:29:27;4.70;99.90
56725;DHT22;42608;52.776;6.968;2022-11-22T06:31:54;4.80;99.90
56725;DHT22;42608;52.776;6.968;2022-11-22T06:34:20;4.80;99.90
56725;DHT22;42608;52.776;6.968;2022-11-22T06:36:46;4.80;99.90
56725;DHT22;42608;52.776;6.968;2022-11-22T06:39:13;4.80;99.90
56725;DHT22;42608;52.776;6.968;2022-11-22T06:41:38;4.80;99.90
56725;DHT22;42608;52.776;6.968;2022-11-22T06:44:06;4.80;99.90
56725;DHT22;42608;52.776;6.968;2022-11-22T06:46:32;4.80;99.90
56725;DHT22;42608;52.776;6.968;2022-11-22T06:48:59;4.80;99.90
56725;DHT22;42608;52.776;6.968;2022-11-22T06:51:26;4.90;99.90
56725;DHT22;42608;52.776;6.968;2022-11-22T06:53:53;4.80;99.90
56725;DHT22;42608;52.776;6.968;2022-11-22T06:56:24;4.90;99.90
56725;DHT22;42608;52.776;6.968;2022-11-22T06:58:50;4.90;99.90
56725;DHT22;42608;52.776;6.968;2022-11-22T07:01:18;4.90;99.90
56725;DHT22;42608;52.776;6.968;2022-11-22T07:03:44;4.90;99.90
56725;DHT22;42608;52.776;6.968;2022-11-22T07:06:12;4.90;99.90
56725;DHT22;42608;52.776;6.968;2022-11-22T07:08:39;5.00;99.90
56725;DHT22;42608;52.776;6.968;2022-11-22T07:11:10;5.00;99.90
56725;DHT22;42608;52.776;6.968;2022-11-22T07:13:36;5.00;99.90
56725;DHT22;42608;52.776;6.968;2022-11-22T07:16:04;5.00;99.90
56725;DHT22;42608;52.776;6.968;2022-11-22T07:18:31;5.00;99.90
56725;DHT22;42608;52.776;6.968;2022-11-22T07:21:01;5.00;99.90
56725;DHT22;42608;52.776;6.968;2022-11-22T07:23:28;5.10;99.90
56725;DHT22;42608;52.776;6.968;2022-11-22T07:25:55;5.10;99.90
56725;DHT22;42608;52.776;6.968;2022-11-22T07:28:21;5.10;99.90
56725;DHT22;42608;52.776;6.968;2022-11-22T07:30:47;5.10;99.90
56725;DHT22;42608;52.776;6.968;2022-11-22T07:33:13;5.10;99.90
56725;DHT22;42608;52.776;6.968;2022-11-22T07:35:40;5.10;99.90
56725;DHT22;42608;52.776;6.968;2022-11-22T07:38:07;5.20;99.90
56725;DHT22;42608;52.776;6.968;2022-11-22T07:40:33;5.20;99.90
56725;DHT22;42608;52.776;6.968;2022-11-22T07:43:00;5.20;99.90
56725;DHT22;42608;52.776;6.968;2022-11-22T07:45:25;5.20;99.90
56725;DHT22;42608;52.776;6.968;2022-11-22T07:47:52;5.30;99.90
56725;DHT22;42608;52.776;6.968;2022-11-22T07:50:17;5.30;99.90
56725;DHT22;42608;52.776;6.968;2022-11-22T07:52:44;5.30;99.90
56725;DHT22;42608;52.776;6.968;2022-11-22T07:55:09;5.30;99.90
56725;DHT22;42608;52.776;6.968;2022-11-22T07:57:36;5.30;99.90
56725;DHT22;42608;52.776;6.968;2022-11-22T08:00:03;5.30;99.90
56725;DHT22;42608;52.776;6.968;2022-11-22T08:02:30;5.30;99.90
56725;DHT22;42608;52.776;6.968;2022-11-22T08:04:56;5.30;99.90
56725;DHT22;42608;52.776;6.968;2022-11-22T08:07:22;5.30;99.90
56725;DHT22;42608;52.776;6.968;2022-11-22T08:09:48;5.30;99.90
56725;DHT22;42608;52.776;6.968;2022-11-22T08:12:15;5.30;99.90
56725;DHT22;42608;52.776;6.968;2022-11-22T08:14:41;5.30;99.90
56725;DHT22;42608;52.776;6.968;2022-11-22T08:17:07;5.30;99.90
56725;DHT22;42608;52.776;6.968;2022-11-22T08:19:34;5.20;99.90
56725;DHT22;42608;52.776;6.968;2022-11-22T08:22:00;5.30;99.90
56725;DHT22;42608;52.776;6.968;2022-11-22T08:24:27;5.30;99.90
56725;DHT22;42608;52.776;6.968;2022-11-22T08:26:53;5.30;99.90
56725;DHT22;42608;52.776;6.968;2022-11-22T08:29:19;5.30;99.90
56725;DHT22;42608;52.776;6.968;2022-11-22T08:31:47;5.30;99.90
56725;DHT22;42608;52.776;6.968;2022-11-22T08:34:13;5.30;99.90
56725;DHT22;42608;52.776;6.968;2022-11-22T08:36:39;5.30;99.90
56725;DHT22;42608;52.776;6.968;2022-11-22T08:39:05;5.30;99.90
56725;DHT22;42608;52.776;6.968;2022-11-22T08:41:31;5.30;99.90
56725;DHT22;42608;52.776;6.968;2022-11-22T08:43:57;5.40;99.90
56725;DHT22;42608;52.776;6.968;2022-11-22T08:46:23;5.40;99.90
56725;DHT22;42608;52.776;6.968;2022-11-22T08:48:50;5.40;99.90
56725;DHT22;42608;52.776;6.968;2022-11-22T08:51:18;5.40;99.90
56725;DHT22;42608;52.776;6.968;2022-11-22T08:53:45;5.40;99.90
56725;DHT22;42608;52.776;6.968;2022-11-22T08:56:12;5.40;99.90
56725;DHT22;42608;52.776;6.968;2022-11-22T08:58:38;5.50;99.90
56725;DHT22;42608;52.776;6.968;2022-11-22T09:01:05;5.50;99.90
56725;DHT22;42608;52.776;6.968;2022-11-22T09:03:32;5.50;99.90
56725;DHT22;42608;52.776;6.968;2022-11-22T09:06:02;5.50;99.90
56725;DHT22;42608;52.776;6.968;2022-11-22T09:08:29;5.60;99.90
56725;DHT22;42608;52.776;6.968;2022-11-22T09:10:58;5.60;99.90
56725;DHT22;42608;52.776;6.968;2022-11-22T09:13:24;5.60;99.90
56725;DHT22;42608;52.776;6.968;2022-11-22T09:15:51;5.70;99.90
56725;DHT22;42608;52.776;6.968;2022-11-22T09:18:17;5.70;99.90
56725;DHT22;42608;52.776;6.968;2022-11-22T09:20:43;5.80;99.90
56725;DHT22;42608;52.776;6.968;2022-11-22T09:23:09;5.80;99.90
56725;DHT22;42608;52.776;6.968;2022-11-22T09:25:35;5.80;99.90
56725;DHT22;42608;52.776;6.968;2022-11-22T09:28:01;5.80;99.90
56725;DHT22;42608;52.776;6.968;2022-11-22T09:30:29;5.90;99.90
56725;DHT22;42608;52.776;6.968;2022-11-22T09:32:56;5.90;99.90
56725;DHT22;42608;52.776;6.968;2022-11-22T09:35:22;6.00;99.90
56725;DHT22;42608;52.776;6.968;2022-11-22T09:37:48;5.90;99.90
56725;DHT22;42608;52.776;6.968;2022-11-22T09:40:15;6.00;99.90
56725;DHT22;42608;52.776;6.968;2022-11-22T09:53:19;6.30;99.90
56725;DHT22;42608;52.776;6.968;2022-11-22T09:55:52;6.30;99.90
56725;DHT22;42608;52.776;6.968;2022-11-22T10:00:46;6.40;99.90
56725;DHT22;42608;52.776;6.968;2022-11-22T10:03:27;6.40;99.90
56725;DHT22;42608;52.776;6.968;2022-11-22T10:05:57;6.50;99.90
56725;DHT22;42608;52.776;6.968;2022-11-22T10:11:00;6.50;99.90
56725;DHT22;42608;52.776;6.968;2022-11-22T10:13:30;6.50;99.90
56725;DHT22;42608;52.776;6.968;2022-11-22T10:16:02;6.60;99.90
56725;DHT22;42608;52.776;6.968;2022-11-22T10:20:59;6.60;99.90
56725;DHT22;42608;52.776;6.968;2022-11-22T10:23:25;6.70;99.90
56725;DHT22;42608;52.776;6.968;2022-11-22T10:26:00;6.70;99.90
56725;DHT22;42608;52.776;6.968;2022-11-22T10:28:34;6.70;99.90
56725;DHT22;42608;52.776;6.968;2022-11-22T10:33:51;6.70;99.90
56725;DHT22;42608;52.776;6.968;2022-11-22T10:42:05;6.70;99.90
56725;DHT22;42608;52.776;6.968;2022-11-22T10:44:40;6.70;99.90
56725;DHT22;42608;52.776;6.968;2022-11-22T10:54:33;6.80;99.90
56725;DHT22;42608;52.776;6.968;2022-11-22T10:57:03;6.90;99.90
56725;DHT22;42608;52.776;6.968;2022-11-22T10:59:45;6.90;99.90
56725;DHT22;42608;52.776;6.968;2022-11-22T11:02:26;6.90;99.90
56725;DHT22;42608;52.776;6.968;2022-11-22T11:04:56;6.90;99.90
56725;DHT22;42608;52.776;6.968;2022-11-22T11:07:23;6.90;99.90
56725;DHT22;42608;52.776;6.968;2022-11-22T11:09:58;7.00;99.90
56725;DHT22;42608;52.776;6.968;2022-11-22T11:12:49;7.00;99.90
56725;DHT22;42608;52.776;6.968;2022-11-22T11:15:48;7.00;99.90
56725;DHT22;42608;52.776;6.968;2022-11-22T11:18:14;7.00;99.90
56725;DHT22;42608;52.776;6.968;2022-11-22T11:20:42;7.00;99.90
56725;DHT22;42608;52.776;6.968;2022-11-22T11:23:12;7.10;99.90
56725;DHT22;42608;52.776;6.968;2022-11-22T11:25:40;7.10;99.90
56725;DHT22;42608;52.776;6.968;2022-11-22T11:28:26;7.10;99.90
56725;DHT22;42608;52.776;6.968;2022-11-22T11:31:27;7.10;99.90
56725;DHT22;42608;52.776;6.968;2022-11-22T11:33:47;7.20;99.90
56725;DHT22;42608;52.776;6.968;2022-11-22T11:36:18;7.20;99.90
56725;DHT22;42608;52.776;6.968;2022-11-22T11:41:28;7.20;99.90
56725;DHT22;42608;52.776;6.968;2022-11-22T11:43:58;7.20;99.90
56725;DHT22;42608;52.776;6.968;2022-11-22T11:46:26;7.30;99.90
56725;DHT22;42608;52.776;6.968;2022-11-22T11:48:54;7.30;99.90
56725;DHT22;42608;52.776;6.968;2022-11-22T11:51:24;7.30;99.90
56725;DHT22;42608;52.776;6.968;2022-11-22T11:53:54;7.30;99.90
56725;DHT22;42608;52.776;6.968;2022-11-22T11:56:31;7.40;99.90
56725;DHT22;42608;52.776;6.968;2022-11-22T11:58:58;7.40;99.90
56725;DHT22;42608;52.776;6.968;2022-11-22T12:01:27;7.40;99.90
56725;DHT22;42608;52.776;6.968;2022-11-22T12:03:56;7.40;99.90
56725;DHT22;42608;52.776;6.968;2022-11-22T12:06:27;7.40;99.90
56725;DHT22;42608;52.776;6.968;2022-11-22T12:08:55;7.40;99.90
56725;DHT22;42608;52.776;6.968;2022-11-22T12:11:42;7.50;99.90
56725;DHT22;42608;52.776;6.968;2022-11-22T12:14:11;7.50;99.90
56725;DHT22;42608;52.776;6.968;2022-11-22T12:16:47;7.40;99.90
56725;DHT22;42608;52.776;6.968;2022-11-22T12:25:37;7.40;99.90
56725;DHT22;42608;52.776;6.968;2022-11-22T12:27:44;7.40;99.90
56725;DHT22;42608;52.776;6.968;2022-11-22T12:30:11;7.40;99.90
56725;DHT22;42608;52.776;6.968;2022-11-22T12:32:40;7.40;99.90
56725;DHT22;42608;52.776;6.968;2022-11-22T12:35:18;7.40;99.90
56725;DHT22;42608;52.776;6.968;2022-11-22T12:37:47;7.40;99.90
56725;DHT22;42608;52.776;6.968;2022-11-22T12:40:16;7.40;99.90
56725;DHT22;42608;52.776;6.968;2022-11-22T12:42:45;7.50;99.90
56725;DHT22;42608;52.776;6.968;2022-11-22T12:45:17;7.50;99.90
56725;DHT22;42608;52.776;6.968;2022-11-22T12:47:49;7.50;99.90
56725;DHT22;42608;52.776;6.968;2022-11-22T12:52:46;7.40;99.90
56725;DHT22;42608;52.776;6.968;2022-11-22T12:57:56;7.40;99.90
56725;DHT22;42608;52.776;6.968;2022-11-22T13:00:26;7.40;99.90
56725;DHT22;42608;52.776;6.968;2022-11-22T13:05:26;7.40;99.90
56725;DHT22;42608;52.776;6.968;2022-11-22T13:15:51;7.40;99.90
56725;DHT22;42608;52.776;6.968;2022-11-22T13:18:17;7.40;99.90
56725;DHT22;42608;52.776;6.968;2022-11-22T13:20:54;7.40;99.90
56725;DHT22;42608;52.776;6.968;2022-11-22T13:23:38;7.30;99.90
56725;DHT22;42608;52.776;6.968;2022-11-22T13:26:19;7.30;99.90
56725;DHT22;42608;52.776;6.968;2022-11-22T13:28:47;7.30;99.90
56725;DHT22;42608;52.776;6.968;2022-11-22T13:31:17;7.30;99.90
56725;DHT22;42608;52.776;6.968;2022-11-22T13:33:51;7.30;99.90
56725;DHT22;42608;52.776;6.968;2022-11-22T13:39:00;7.30;99.90
56725;DHT22;42608;52.776;6.968;2022-11-22T13:41:43;7.30;99.90
56725;DHT22;42608;52.776;6.968;2022-11-22T13:45:04;7.30;99.90
56725;DHT22;42608;52.776;6.968;2022-11-22T13:47:48;7.30;99.90
56725;DHT22;42608;52.776;6.968;2022-11-22T13:49:50;7.30;99.90
56725;DHT22;42608;52.776;6.968;2022-11-22T14:02:35;7.20;99.90
56725;DHT22;42608;52.776;6.968;2022-11-22T14:05:02;7.20;99.90
56725;DHT22;42608;52.776;6.968;2022-11-22T14:07:32;7.20;99.90
56725;DHT22;42608;52.776;6.968;2022-11-22T14:09:59;7.20;99.90
56725;DHT22;42608;52.776;6.968;2022-11-22T14:17:51;7.20;99.90
56725;DHT22;42608;52.776;6.968;2022-11-22T14:23:18;7.10;99.90
56725;DHT22;42608;52.776;6.968;2022-11-22T14:31:22;7.20;99.90
56725;DHT22;42608;52.776;6.968;2022-11-22T14:36:35;7.20;99.90
56725;DHT22;42608;52.776;6.968;2022-11-22T14:39:01;7.20;99.90
56725;DHT22;42608;52.776;6.968;2022-11-22T14:41:47;7.10;99.90
56725;DHT22;42608;52.776;6.968;2022-11-22T14:44:21;7.20;99.90
56725;DHT22;42608;52.776;6.968;2022-11-22T14:49:25;7.20;99.90
56725;DHT22;42608;52.776;6.968;2022-11-22T14:51:54;7.10;99.90
56725;DHT22;42608;52.776;6.968;2022-11-22T14:54:22;7.10;99.90
56725;DHT22;42608;52.776;6.968;2022-11-22T14:56:49;7.10;99.90
56725;DHT22;42608;52.776;6.968;2022-11-22T14:59:28;7.10;99.90
56725;DHT22;42608;52.776;6.968;2022-11-22T15:02:02;7.10;99.90
56725;DHT22;42608;52.776;6.968;2022-11-22T15:07:10;7.10;99.90
56725;DHT22;42608;52.776;6.968;2022-11-22T15:17:42;7.20;99.90
56725;DHT22;42608;52.776;6.968;2022-11-22T15:22:52;7.10;99.90
56725;DHT22;42608;52.776;6.968;2022-11-22T15:25:19;7.10;99.90
56725;DHT22;42608;52.776;6.968;2022-11-22T15:27:45;7.00;99.90
56725;DHT22;42608;52.776;6.968;2022-11-22T15:30:13;7.00;99.90
56725;DHT22;42608;52.776;6.968;2022-11-22T15:32:44;7.00;99.90
56725;DHT22;42608;52.776;6.968;2022-11-22T15:35:23;7.00;99.90
56725;DHT22;42608;52.776;6.968;2022-11-22T15:38:02;7.00;99.90
56725;DHT22;42608;52.776;6.968;2022-11-22T15:40:32;7.00;99.90
56725;DHT22;42608;52.776;6.968;2022-11-22T15:43:00;7.00;99.90
56725;DHT22;42608;52.776;6.968;2022-11-22T15:45:28;7.00;99.90
56725;DHT22;42608;52.776;6.968;2022-11-22T15:47:56;6.90;99.90
56725;DHT22;42608;52.776;6.968;2022-11-22T15:50:24;7.00;99.90
56725;DHT22;42608;52.776;6.968;2022-11-22T15:52:51;7.00;99.90
56725;DHT22;42608;52.776;6.968;2022-11-22T15:55:20;7.00;99.90
56725;DHT22;42608;52.776;6.968;2022-11-22T15:57:47;6.90;99.90
56725;DHT22;42608;52.776;6.968;2022-11-22T16:00:26;7.00;99.90
56725;DHT22;42608;52.776;6.968;2022-11-22T16:02:54;7.00;99.90
56725;DHT22;42608;52.776;6.968;2022-11-22T16:05:23;7.00;99.90
56725;DHT22;42608;52.776;6.968;2022-11-22T16:07:49;6.90;99.90
56725;DHT22;42608;52.776;6.968;2022-11-22T16:12:45;6.90;99.90
56725;DHT22;42608;52.776;6.968;2022-11-22T16:15:31;6.90;99.90
56725;DHT22;42608;52.776;6.968;2022-11-22T16:20:36;6.90;99.90
56725;DHT22;42608;52.776;6.968;2022-11-22T16:25:41;6.90;99.90
56725;DHT22;42608;52.776;6.968;2022-11-22T16:30:53;6.90;99.90
56725;DHT22;42608;52.776;6.968;2022-11-22T16:33:22;6.90;99.90
56725;DHT22;42608;52.776;6.968;2022-11-22T16:35:59;7.00;99.90
56725;DHT22;42608;52.776;6.968;2022-11-22T16:38:25;7.00;99.90
56725;DHT22;42608;52.776;6.968;2022-11-22T16:40:54;6.90;99.90
56725;DHT22;42608;52.776;6.968;2022-11-22T16:43:22;6.90;99.90
56725;DHT22;42608;52.776;6.968;2022-11-22T16:45:50;6.90;99.90
56725;DHT22;42608;52.776;6.968;2022-11-22T16:48:17;6.90;99.90
56725;DHT22;42608;52.776;6.968;2022-11-22T16:50:44;6.90;99.90
56725;DHT22;42608;52.776;6.968;2022-11-22T16:53:14;6.90;99.90
56725;DHT22;42608;52.776;6.968;2022-11-22T16:55:41;6.90;99.90
56725;DHT22;42608;52.776;6.968;2022-11-22T16:58:19;6.90;99.90
56725;DHT22;42608;52.776;6.968;2022-11-22T17:00:46;6.90;99.90
56725;DHT22;42608;52.776;6.968;2022-11-22T17:03:22;6.90;99.90
56725;DHT22;42608;52.776;6.968;2022-11-22T17:05:50;6.90;99.90
56725;DHT22;42608;52.776;6.968;2022-11-22T17:08:17;6.90;99.90
56725;DHT22;42608;52.776;6.968;2022-11-22T17:10:45;6.90;99.90
56725;DHT22;42608;52.776;6.968;2022-11-22T17:13:15;6.90;99.90
56725;DHT22;42608;52.776;6.968;2022-11-22T17:15:42;6.90;99.90
56725;DHT22;42608;52.776;6.968;2022-11-22T17:18:09;6.90;99.90
56725;DHT22;42608;52.776;6.968;2022-11-22T17:20:35;6.90;99.90
56725;DHT22;42608;52.776;6.968;2022-11-22T17:23:03;7.00;99.90
56725;DHT22;42608;52.776;6.968;2022-11-22T17:25:30;7.00;99.90
56725;DHT22;42608;52.776;6.968;2022-11-22T17:27:57;6.90;99.90
56725;DHT22;42608;52.776;6.968;2022-11-22T17:30:23;6.90;99.90
56725;DHT22;42608;52.776;6.968;2022-11-22T17:32:49;6.90;99.90
56725;DHT22;42608;52.776;6.968;2022-11-22T17:35:16;6.90;99.90
56725;DHT22;42608;52.776;6.968;2022-11-22T17:37:43;6.90;99.90
56725;DHT22;42608;52.776;6.968;2022-11-22T17:40:10;6.90;99.90
56725;DHT22;42608;52.776;6.968;2022-11-22T17:42:36;7.00;99.90
56725;DHT22;42608;52.776;6.968;2022-11-22T17:45:02;7.00;99.90
56725;DHT22;42608;52.776;6.968;2022-11-22T17:47:28;7.00;99.90
56725;DHT22;42608;52.776;6.968;2022-11-22T17:49:55;7.00;99.90
56725;DHT22;42608;52.776;6.968;2022-11-22T17:52:21;7.00;99.90
56725;DHT22;42608;52.776;6.968;2022-11-22T17:54:47;7.00;99.90